Time;durP1;ratioP1;P1;durP2;ratioP2;P2;SDS_P1;SDS_P2;PMS_P1;PMS_P2;Temp;Humidity;BMP_temperature;BMP_pressure;BME280_temperature;BME280_humidity;BME280_pressure;Samples;Min_cycle;Max_cycle;Signal;HPM_P1;HPM_P2
2020/12/15 00:01:59;;;;;;;8.33;6.30;;;2.60;99.90;;;;;;5072620;28;20461;-71
2020/12/15 00:04:26;;;;;;;7.90;6.30;;;2.60;99.90;;;;;;5072898;28;20426;-71
2020/12/15 00:06:53;;;;;;;6.30;5.10;;;2.60;99.90;;;;;;5072380;28;20452;-71
2020/12/15 00:09:21;;;;;;;8.30;5.87;;;2.70;99.90;;;;;;5072486;28;20446;-71
2020/12/15 00:11:48;;;;;;;9.80;7.43;;;2.70;99.90;;;;;;5072434;28;20452;-71
2020/12/15 00:14:14;;;;;;;8.57;5.80;;;2.70;99.90;;;;;;5072299;28;20462;-71
2020/12/15 00:16:41;;;;;;;7.53;6.20;;;2.70;99.90;;;;;;5072344;28;20422;-71
2020/12/15 00:19:08;;;;;;;6.80;6.00;;;2.70;99.90;;;;;;5072276;28;20457;-71
2020/12/15 00:21:35;;;;;;;7.63;6.83;;;2.70;99.90;;;;;;5072503;28;20554;-71
2020/12/15 00:24:01;;;;;;;6.40;5.80;;;2.70;99.90;;;;;;5072234;28;20422;-71
2020/12/15 00:26:29;;;;;;;11.63;6.40;;;2.80;99.90;;;;;;5083788;28;20802;-71
2020/12/15 00:28:55;;;;;;;8.13;6.00;;;2.80;99.90;;;;;;5092214;28;20445;-71
2020/12/15 00:31:22;;;;;;;7.77;5.70;;;2.80;99.90;;;;;;5092501;28;20425;-72
2020/12/15 00:33:49;;;;;;;5.50;4.90;;;2.90;99.90;;;;;;5092435;28;20425;-71
2020/12/15 00:36:19;;;;;;;6.63;5.50;;;3.00;99.90;;;;;;5092077;28;20860;-71
2020/12/15 00:38:46;;;;;;;8.50;6.10;;;3.00;99.90;;;;;;5092148;28;20443;-71
2020/12/15 00:41:12;;;;;;;7.00;4.57;;;3.00;99.90;;;;;;5092085;28;20435;-71
2020/12/15 00:43:40;;;;;;;7.27;4.93;;;3.00;99.90;;;;;;5092062;28;20425;-71
2020/12/15 00:46:07;;;;;;;9.87;6.43;;;3.00;99.90;;;;;;5091390;28;20775;-70
2020/12/15 00:48:33;;;;;;;8.10;6.07;;;3.00;99.90;;;;;;5092016;28;20432;-71
2020/12/15 00:51:00;;;;;;;6.47;5.77;;;3.00;99.90;;;;;;5091881;28;20448;-72
2020/12/15 00:53:27;;;;;;;5.63;5.00;;;3.00;99.90;;;;;;5091799;28;20913;-71
2020/12/15 00:55:53;;;;;;;5.73;5.10;;;3.10;99.90;;;;;;5085329;28;20496;-71
2020/12/15 00:58:20;;;;;;;11.83;6.57;;;3.10;99.90;;;;;;5071552;28;20426;-71
2020/12/15 01:00:48;;;;;;;8.20;6.40;;;3.10;99.90;;;;;;5071503;28;20818;-71
2020/12/15 01:03:14;;;;;;;8.10;6.07;;;3.10;99.90;;;;;;5071910;28;20452;-71
2020/12/15 01:05:41;;;;;;;6.90;5.80;;;3.10;99.90;;;;;;5071237;28;20436;-71
2020/12/15 01:08:08;;;;;;;10.10;6.40;;;3.10;99.90;;;;;;5071346;28;20815;-71
2020/12/15 01:10:34;;;;;;;9.90;6.87;;;3.20;99.90;;;;;;5075240;28;20453;-71
2020/12/15 01:13:01;;;;;;;7.10;6.27;;;3.10;99.90;;;;;;5091576;28;20796;-71
2020/12/15 01:15:28;;;;;;;9.23;6.30;;;3.20;99.90;;;;;;5091422;28;20459;-71
2020/12/15 01:17:55;;;;;;;9.30;6.37;;;3.10;99.90;;;;;;5091042;28;20421;-71
2020/12/15 01:20:22;;;;;;;8.53;6.37;;;3.10;99.90;;;;;;5091353;28;20445;-70
2020/12/15 01:22:49;;;;;;;11.97;6.33;;;3.00;99.90;;;;;;5091441;28;20436;-71
2020/12/15 01:25:15;;;;;;;8.20;5.83;;;3.00;99.90;;;;;;5091307;28;20440;-71
2020/12/15 01:27:42;;;;;;;8.37;6.87;;;3.00;99.90;;;;;;5091182;28;20422;-71
2020/12/15 01:30:09;;;;;;;15.97;7.80;;;3.10;99.90;;;;;;5091161;28;20456;-71
2020/12/15 01:32:35;;;;;;;10.83;7.30;;;3.10;99.90;;;;;;5091183;28;20513;-71
2020/12/15 01:35:03;;;;;;;11.50;7.30;;;3.00;99.90;;;;;;5091037;28;20547;-71
2020/12/15 01:37:30;;;;;;;7.77;6.37;;;3.00;99.90;;;;;;5091243;28;20433;-71
2020/12/15 01:39:56;;;;;;;11.90;7.90;;;3.10;99.90;;;;;;5091015;28;20449;-71
2020/12/15 01:42:23;;;;;;;10.13;7.10;;;3.10;99.90;;;;;;5090976;28;20939;-71
2020/12/15 01:44:51;;;;;;;12.83;7.27;;;3.10;99.90;;;;;;5091171;28;20437;-71
2020/12/15 01:47:18;;;;;;;8.07;6.40;;;3.10;99.90;;;;;;5091086;28;20424;-71
2020/12/15 01:49:45;;;;;;;10.60;7.37;;;3.10;99.90;;;;;;5091278;28;20964;-71
2020/12/15 01:52:14;;;;;;;9.70;7.20;;;3.10;99.90;;;;;;5091030;28;20948;-71
2020/12/15 01:54:41;;;;;;;10.97;7.63;;;3.10;99.90;;;;;;5090823;28;20560;-71
2020/12/15 01:57:09;;;;;;;13.83;7.77;;;3.10;99.90;;;;;;5091216;28;20918;-72
2020/12/15 01:59:35;;;;;;;10.80;6.87;;;3.20;99.90;;;;;;5094491;28;20460;-71
2020/12/15 02:02:04;;;;;;;13.77;7.47;;;3.20;99.90;;;;;;5095191;28;20432;-71
2020/12/15 02:04:31;;;;;;;11.17;8.10;;;3.20;99.90;;;;;;5094762;28;20445;-71
2020/12/15 02:06:58;;;;;;;9.80;7.13;;;3.20;99.90;;;;;;5095227;28;20425;-71
2020/12/15 02:09:26;;;;;;;11.03;6.20;;;3.20;99.90;;;;;;5094847;28;21004;-71
2020/12/15 02:11:53;;;;;;;13.33;7.37;;;3.30;99.90;;;;;;5094869;28;20432;-71
2020/12/15 02:14:20;;;;;;;8.80;6.70;;;3.40;99.90;;;;;;5094635;28;20965;-71
2020/12/15 02:16:50;;;;;;;10.67;7.50;;;3.40;99.90;;;;;;5094885;28;20447;-71
2020/12/15 02:19:18;;;;;;;7.87;6.70;;;3.40;99.90;;;;;;5094987;28;20452;-71
2020/12/15 02:21:50;;;;;;;9.30;7.60;;;3.10;99.90;;;;;;5094736;28;20427;-71
2020/12/15 02:24:17;;;;;;;14.43;7.80;;;3.00;99.90;;;;;;5094843;28;20421;-69
2020/12/15 02:26:44;;;;;;;9.00;6.27;;;2.80;99.90;;;;;;5080863;28;20442;-70
2020/12/15 02:29:11;;;;;;;8.53;6.87;;;2.80;99.90;;;;;;5074114;28;20469;-70
2020/12/15 02:31:37;;;;;;;9.73;7.43;;;2.70;99.90;;;;;;5074002;28;20497;-70
2020/12/15 02:34:04;;;;;;;9.00;7.30;;;2.50;99.90;;;;;;5074402;28;20448;-70
2020/12/15 02:36:31;;;;;;;12.10;8.10;;;2.50;99.90;;;;;;5074083;28;20567;-70
2020/12/15 02:39:06;;;;;;;8.27;6.50;;;2.50;99.90;;;;;;5074234;28;20427;-70
2020/12/15 02:41:33;;;;;;;11.77;7.40;;;2.50;99.90;;;;;;5073763;28;20417;-70
2020/12/15 02:43:59;;;;;;;11.47;7.60;;;2.50;99.90;;;;;;5074076;28;20430;-70
2020/12/15 02:46:26;;;;;;;9.47;7.23;;;2.50;99.90;;;;;;5074048;28;20426;-70
2020/12/15 02:48:55;;;;;;;8.87;6.50;;;2.50;99.90;;;;;;5073817;28;20434;-70
2020/12/15 02:51:22;;;;;;;8.47;6.53;;;2.40;99.90;;;;;;5073612;28;20451;-69
2020/12/15 02:53:49;;;;;;;9.13;5.80;;;2.50;99.90;;;;;;5074039;28;20436;-70
2020/12/15 02:56:21;;;;;;;9.53;6.33;;;2.60;99.90;;;;;;5073386;28;20473;-70
2020/12/15 02:58:47;;;;;;;11.10;6.67;;;2.60;99.90;;;;;;5073659;28;20425;-70
2020/12/15 03:01:15;;;;;;;10.53;7.50;;;2.60;99.90;;;;;;5073277;28;20426;-70
2020/12/15 03:03:41;;;;;;;10.27;6.73;;;2.60;99.90;;;;;;5081224;28;20434;-70
2020/12/15 03:06:08;;;;;;;14.13;8.40;;;2.70;99.90;;;;;;5091002;28;20443;-70
2020/12/15 03:08:35;;;;;;;11.23;8.20;;;2.80;99.90;;;;;;5093989;28;20906;-71
2020/12/15 03:11:02;;;;;;;8.40;7.00;;;2.80;99.90;;;;;;5092540;28;20971;-70
2020/12/15 03:13:29;;;;;;;8.63;7.67;;;2.80;99.90;;;;;;5093863;28;20432;-70
2020/12/15 03:15:56;;;;;;;9.93;6.90;;;2.80;99.90;;;;;;5093763;28;20473;-70
2020/12/15 03:18:23;;;;;;;8.20;6.47;;;2.80;99.90;;;;;;5093456;28;20433;-70
2020/12/15 03:20:50;;;;;;;12.07;7.83;;;2.80;99.90;;;;;;5093188;28;20441;-70
2020/12/15 03:23:17;;;;;;;9.20;6.93;;;2.80;99.90;;;;;;5093725;28;20429;-70
2020/12/15 03:25:44;;;;;;;8.67;6.57;;;2.80;99.90;;;;;;5089276;28;20436;-70
2020/12/15 03:28:11;;;;;;;6.57;5.30;;;2.80;99.90;;;;;;5073127;28;20440;-70
2020/12/15 03:30:38;;;;;;;8.17;5.83;;;2.80;99.90;;;;;;5072904;28;20477;-70
2020/12/15 03:33:05;;;;;;;6.13;5.37;;;2.80;99.90;;;;;;5073144;28;20768;-70
2020/12/15 03:35:32;;;;;;;9.67;5.87;;;2.80;99.90;;;;;;5073139;28;20469;-70
2020/12/15 03:38:00;;;;;;;7.17;5.17;;;2.70;99.90;;;;;;5072981;28;20464;-70
2020/12/15 03:40:26;;;;;;;9.23;5.43;;;2.60;99.90;;;;;;5072847;28;20462;-70
2020/12/15 03:42:53;;;;;;;7.10;5.60;;;2.70;99.90;;;;;;5072558;28;20429;-70
2020/12/15 03:45:20;;;;;;;9.17;6.80;;;2.60;99.90;;;;;;5072986;28;20942;-70
2020/12/15 03:47:47;;;;;;;7.90;6.40;;;2.60;99.90;;;;;;5072765;28;20456;-69
2020/12/15 03:50:14;;;;;;;7.90;5.80;;;2.70;99.90;;;;;;5072628;28;20450;-69
2020/12/15 03:52:41;;;;;;;8.13;5.40;;;2.60;99.90;;;;;;5072472;28;20429;-70
2020/12/15 03:55:08;;;;;;;7.60;5.20;;;2.60;99.90;;;;;;5072863;28;20478;-70
2020/12/15 03:57:34;;;;;;;6.93;5.40;;;2.60;99.90;;;;;;5072436;28;20791;-70
2020/12/15 04:00:01;;;;;;;8.67;6.03;;;2.60;99.90;;;;;;5072668;28;20442;-70
2020/12/15 04:02:28;;;;;;;7.27;5.37;;;2.60;99.90;;;;;;5072175;28;20438;-70
2020/12/15 04:04:55;;;;;;;8.40;5.63;;;2.60;99.90;;;;;;5071872;28;20448;-70
2020/12/15 04:07:22;;;;;;;9.53;6.60;;;2.50;99.90;;;;;;5072545;28;20886;-70
2020/12/15 04:09:48;;;;;;;9.77;6.27;;;2.50;99.90;;;;;;5072296;28;20448;-70
2020/12/15 04:12:15;;;;;;;7.23;5.10;;;2.50;99.90;;;;;;5072150;28;20426;-70
2020/12/15 04:14:42;;;;;;;9.10;5.73;;;2.50;99.90;;;;;;5072175;28;20504;-70
2020/12/15 04:17:09;;;;;;;6.20;4.60;;;2.50;99.90;;;;;;5073741;28;20438;-70
2020/12/15 04:19:36;;;;;;;8.30;5.73;;;2.60;99.90;;;;;;5082829;28;20948;-70
2020/12/15 04:22:04;;;;;;;6.27;4.93;;;2.70;99.90;;;;;;5071881;28;20502;-70
2020/12/15 04:24:31;;;;;;;8.03;5.60;;;2.60;99.90;;;;;;5072119;28;20426;-70
2020/12/15 04:26:59;;;;;;;5.83;4.33;;;2.50;99.90;;;;;;5071485;28;20446;-70
2020/12/15 04:29:26;;;;;;;6.60;4.87;;;2.50;99.90;;;;;;5071876;28;20449;-70
2020/12/15 04:31:52;;;;;;;7.57;5.57;;;2.40;99.90;;;;;;5071763;28;20430;-69
2020/12/15 04:34:19;;;;;;;6.57;5.40;;;2.40;99.90;;;;;;5072127;28;20434;-70
2020/12/15 04:36:46;;;;;;;8.60;5.70;;;2.30;99.90;;;;;;5071935;28;20472;-70
2020/12/15 04:39:13;;;;;;;10.30;5.30;;;2.30;99.90;;;;;;5071829;28;20449;-69
2020/12/15 04:41:40;;;;;;;7.80;4.63;;;2.40;99.90;;;;;;5071493;28;20458;-69
2020/12/15 04:44:08;;;;;;;6.80;5.50;;;2.30;99.90;;;;;;5071602;28;20426;-70
2020/12/15 04:46:45;;;;;;;8.40;5.67;;;2.30;99.90;;;;;;5071683;28;20428;-70
2020/12/15 04:49:20;;;;;;;8.00;5.60;;;2.20;99.90;;;;;;5071621;28;20460;-70
2020/12/15 04:51:58;;;;;;;10.60;5.50;;;2.20;99.90;;;;;;5071484;28;20486;-70
2020/12/15 04:54:31;;;;;;;8.30;5.63;;;2.10;99.90;;;;;;5071399;28;20440;-69
2020/12/15 04:57:00;;;;;;;9.43;6.20;;;2.10;99.90;;;;;;5071256;28;20446;-70
2020/12/15 04:59:31;;;;;;;9.93;6.87;;;2.10;99.90;;;;;;5071344;28;20446;-69
2020/12/15 05:01:59;;;;;;;10.90;7.40;;;2.10;99.90;;;;;;5071281;28;20422;-70
2020/12/15 05:04:26;;;;;;;13.00;7.20;;;2.10;99.90;;;;;;5071414;28;20430;-70
2020/12/15 05:06:54;;;;;;;14.97;10.93;;;2.10;99.90;;;;;;5072028;28;20437;-69
2020/12/15 05:09:28;;;;;;;8.40;6.50;;;2.00;99.90;;;;;;5071216;28;20476;-70
2020/12/15 05:11:56;;;;;;;13.33;7.73;;;2.00;99.90;;;;;;5070823;28;20950;-70
2020/12/15 05:14:23;;;;;;;9.90;6.63;;;2.10;99.90;;;;;;5071470;28;20426;-69
2020/12/15 05:16:50;;;;;;;8.97;6.07;;;2.20;99.90;;;;;;5071179;28;20472;-69
2020/12/15 05:19:18;;;;;;;8.47;5.57;;;2.30;99.90;;;;;;5070595;28;20515;-70
2020/12/15 05:21:56;;;;;;;7.50;5.10;;;2.40;99.90;;;;;;5070829;28;20465;-70
2020/12/15 05:24:24;;;;;;;10.17;6.90;;;2.40;99.90;;;;;;5071045;28;20438;-70
2020/12/15 05:26:50;;;;;;;11.70;6.00;;;2.40;99.90;;;;;;5070955;28;20433;-70
2020/12/15 05:29:21;;;;;;;8.53;5.87;;;2.30;99.90;;;;;;5070699;28;20458;-70
2020/12/15 05:31:48;;;;;;;10.30;7.90;;;2.30;99.90;;;;;;5070748;28;20437;-70
2020/12/15 05:34:21;;;;;;;10.97;6.80;;;2.20;99.90;;;;;;5069943;28;20475;-70
2020/12/15 05:36:50;;;;;;;6.90;5.93;;;2.20;99.90;;;;;;5070777;28;20470;-70
2020/12/15 05:39:17;;;;;;;8.17;5.90;;;2.10;99.90;;;;;;5070760;28;20446;-70
2020/12/15 05:41:44;;;;;;;7.73;6.20;;;2.00;99.90;;;;;;5070373;28;20430;-70
2020/12/15 05:44:13;;;;;;;9.57;6.87;;;1.90;99.90;;;;;;5070951;28;20419;-70
2020/12/15 05:46:47;;;;;;;9.53;6.47;;;1.90;99.90;;;;;;5070681;28;20915;-70
2020/12/15 05:49:14;;;;;;;7.90;6.23;;;1.80;99.90;;;;;;5070705;28;20446;-70
2020/12/15 05:51:45;;;;;;;9.43;7.20;;;1.90;99.90;;;;;;5070602;28;20453;-70
2020/12/15 05:54:12;;;;;;;9.90;7.33;;;1.90;99.90;;;;;;5070702;28;20457;-69
2020/12/15 05:56:41;;;;;;;7.77;5.77;;;2.00;99.90;;;;;;5070383;28;20998;-70
2020/12/15 05:59:18;;;;;;;9.67;6.57;;;2.00;99.90;;;;;;5070677;28;20515;-70
2020/12/15 06:02:03;;;;;;;10.17;6.93;;;1.90;99.90;;;;;;5070519;28;20429;-70
2020/12/15 06:04:30;;;;;;;8.47;6.80;;;1.90;99.90;;;;;;5070519;28;20421;-70
2020/12/15 06:06:57;;;;;;;8.80;6.83;;;2.00;99.90;;;;;;5070545;28;20433;-70
2020/12/15 06:09:26;;;;;;;8.57;5.57;;;1.90;99.90;;;;;;5071276;28;20483;-70
2020/12/15 06:11:53;;;;;;;9.80;5.53;;;2.00;99.90;;;;;;5081725;28;20448;-70
2020/12/15 06:14:19;;;;;;;7.90;4.57;;;2.00;99.90;;;;;;5071166;28;20938;-70
2020/12/15 06:16:46;;;;;;;6.10;5.27;;;2.00;99.90;;;;;;5071194;28;20470;-70
2020/12/15 06:19:14;;;;;;;5.33;4.20;;;2.00;99.90;;;;;;5070482;28;20980;-67
2020/12/15 06:21:48;;;;;;;5.80;4.20;;;2.00;99.90;;;;;;5081342;28;20422;-68
2020/12/15 06:24:24;;;;;;;3.40;2.80;;;2.10;99.90;;;;;;5081398;28;20437;-69
2020/12/15 06:26:56;;;;;;;5.00;4.13;;;2.10;99.90;;;;;;5069720;28;20448;-69
2020/12/15 06:29:31;;;;;;;5.07;3.70;;;2.10;99.90;;;;;;5070171;28;20466;-68
2020/12/15 06:31:59;;;;;;;7.03;4.73;;;2.10;99.90;;;;;;5070281;28;20448;-69
2020/12/15 06:34:28;;;;;;;7.33;5.93;;;2.10;99.90;;;;;;5070593;28;20426;-69
2020/12/15 06:36:55;;;;;;;8.63;6.83;;;2.10;99.90;;;;;;5070286;28;20473;-68
2020/12/15 06:39:24;;;;;;;8.50;6.57;;;2.10;99.90;;;;;;5070128;28;20503;-69
2020/12/15 06:42:01;;;;;;;5.53;4.57;;;2.20;99.90;;;;;;5069824;28;20445;-68
2020/12/15 06:44:32;;;;;;;5.73;3.93;;;2.20;99.90;;;;;;5078006;28;20425;-68
2020/12/15 06:46:59;;;;;;;5.80;4.50;;;2.30;99.90;;;;;;5084032;28;20434;-68
2020/12/15 06:49:32;;;;;;;7.70;4.53;;;2.50;99.90;;;;;;5088377;28;20499;-68
2020/12/15 06:52:00;;;;;;;5.20;3.70;;;2.60;99.90;;;;;;5094039;28;20433;-69
2020/12/15 06:54:28;;;;;;;5.90;4.70;;;2.70;99.90;;;;;;5094270;28;20810;-68
2020/12/15 06:57:06;;;;;;;4.30;3.90;;;2.80;99.90;;;;;;5089577;28;20472;-68
2020/12/15 06:59:36;;;;;;;4.93;3.97;;;3.00;99.90;;;;;;5093692;28;20957;-68
2020/12/15 07:02:11;;;;;;;6.17;4.77;;;3.20;99.90;;;;;;5093770;28;20424;-68
2020/12/15 07:04:49;;;;;;;7.73;5.33;;;3.30;99.90;;;;;;5093827;28;20925;-67
2020/12/15 07:07:16;;;;;;;6.70;4.73;;;3.30;99.90;;;;;;5093475;28;20463;-68
2020/12/15 07:09:44;;;;;;;7.33;5.40;;;3.40;99.90;;;;;;5079139;28;20471;-68
2020/12/15 07:12:12;;;;;;;6.30;4.93;;;3.30;99.90;;;;;;5073231;28;20426;-67
2020/12/15 07:14:39;;;;;;;5.97;4.50;;;3.30;99.90;;;;;;5079152;28;20441;-68
2020/12/15 07:17:05;;;;;;;6.37;4.63;;;3.30;99.90;;;;;;5080215;28;20469;-68
2020/12/15 07:19:32;;;;;;;5.80;4.70;;;3.40;99.90;;;;;;5073341;28;20982;-67
2020/12/15 07:22:00;;;;;;;6.10;4.37;;;3.50;99.90;;;;;;5073185;28;20426;-68
2020/12/15 07:24:27;;;;;;;5.53;4.40;;;3.50;99.90;;;;;;5072987;28;20441;-68
2020/12/15 07:26:54;;;;;;;4.97;4.33;;;3.50;99.90;;;;;;5073193;28;20438;-69
2020/12/15 07:29:20;;;;;;;9.73;6.27;;;3.40;99.90;;;;;;5073005;28;20486;-69
2020/12/15 07:31:48;;;;;;;9.33;6.30;;;3.40;99.90;;;;;;5073085;28;20429;-68
2020/12/15 07:34:17;;;;;;;9.20;8.00;;;3.40;99.90;;;;;;5073012;28;20442;-68
2020/12/15 07:36:45;;;;;;;10.60;8.40;;;3.30;99.90;;;;;;5073214;28;20512;-68
2020/12/15 07:39:14;;;;;;;17.17;8.37;;;3.40;99.90;;;;;;5072641;28;20466;-68
2020/12/15 07:41:41;;;;;;;10.90;7.07;;;3.40;99.90;;;;;;5073115;28;20424;-68
2020/12/15 07:44:12;;;;;;;10.03;7.43;;;3.40;99.90;;;;;;5073078;28;20786;-68
2020/12/15 07:46:45;;;;;;;9.67;7.30;;;3.40;99.90;;;;;;5073239;28;20422;-68
2020/12/15 07:49:12;;;;;;;11.87;8.57;;;3.50;99.90;;;;;;5072804;28;20434;-68
2020/12/15 07:51:39;;;;;;;13.57;9.37;;;3.50;99.90;;;;;;5072501;28;20480;-68
2020/12/15 07:54:06;;;;;;;6.43;4.70;;;3.60;99.90;;;;;;5072448;28;20437;-68
2020/12/15 07:56:33;;;;;;;6.40;5.73;;;3.60;99.90;;;;;;5072080;28;20930;-67
2020/12/15 07:59:01;;;;;;;9.93;7.77;;;3.70;99.90;;;;;;5072741;28;20815;-67
2020/12/15 08:01:30;;;;;;;10.83;7.50;;;3.70;99.90;;;;;;5072380;28;20430;-68
2020/12/15 08:04:01;;;;;;;14.10;6.00;;;3.80;99.90;;;;;;5072883;28;20809;-67
2020/12/15 08:06:30;;;;;;;8.60;6.07;;;3.80;99.90;;;;;;5072360;28;20430;-68
2020/12/15 08:08:58;;;;;;;8.90;6.60;;;3.70;99.90;;;;;;5072191;28;20479;-67
2020/12/15 08:11:25;;;;;;;11.33;9.20;;;3.70;99.90;;;;;;5072219;28;20430;-67
2020/12/15 08:13:52;;;;;;;10.33;7.77;;;3.70;99.90;;;;;;5072459;28;20426;-67
2020/12/15 08:16:20;;;;;;;9.73;7.37;;;3.60;99.90;;;;;;5072223;28;20465;-67
2020/12/15 08:18:48;;;;;;;10.37;7.13;;;3.50;99.90;;;;;;5072094;28;20434;-67
2020/12/15 08:21:16;;;;;;;11.30;7.40;;;3.60;99.90;;;;;;5074605;28;20445;-68
2020/12/15 08:23:53;;;;;;;9.13;6.13;;;3.70;99.90;;;;;;5074738;28;20441;-67
2020/12/15 08:26:22;;;;;;;8.13;6.23;;;3.70;99.90;;;;;;5085772;28;20507;-68
2020/12/15 08:28:49;;;;;;;10.13;6.93;;;3.80;99.90;;;;;;5071875;28;20544;-67
2020/12/15 08:31:18;;;;;;;8.30;6.27;;;3.90;99.90;;;;;;5071680;28;20512;-67
2020/12/15 08:33:44;;;;;;;8.90;6.03;;;3.90;99.90;;;;;;5074901;28;20444;-67
2020/12/15 08:36:11;;;;;;;9.30;6.97;;;3.90;99.90;;;;;;5080532;28;20461;-68
2020/12/15 08:38:43;;;;;;;9.77;6.27;;;4.00;99.90;;;;;;5079672;28;20437;-68
2020/12/15 08:41:15;;;;;;;13.53;8.30;;;4.10;99.90;;;;;;5080296;28;20437;-68
2020/12/15 08:43:42;;;;;;;10.50;7.43;;;4.10;99.90;;;;;;5074331;28;20422;-68
2020/12/15 08:46:17;;;;;;;11.07;7.60;;;4.20;99.90;;;;;;5071634;28;20438;-66
2020/12/15 08:48:44;;;;;;;12.50;7.80;;;4.20;99.90;;;;;;5071619;28;20422;-66
2020/12/15 08:51:16;;;;;;;10.77;8.50;;;4.20;99.90;;;;;;5071316;28;20426;-67
2020/12/15 08:53:44;;;;;;;12.23;8.07;;;4.20;99.90;;;;;;5071766;28;20525;-66
2020/12/15 08:56:14;;;;;;;9.80;7.83;;;4.20;99.90;;;;;;5070977;28;20466;-67
2020/12/15 08:58:42;;;;;;;12.87;7.93;;;4.20;99.90;;;;;;5071737;28;20830;-67
2020/12/15 09:01:08;;;;;;;17.30;8.73;;;4.30;99.90;;;;;;5071523;28;20464;-67
2020/12/15 09:03:45;;;;;;;11.70;8.60;;;4.30;99.90;;;;;;5071498;28;20426;-66
2020/12/15 09:06:12;;;;;;;10.00;7.30;;;4.40;99.90;;;;;;5071367;28;20430;-67
2020/12/15 09:08:49;;;;;;;11.20;7.10;;;4.40;99.90;;;;;;5070407;28;20437;-67
2020/12/15 09:11:17;;;;;;;11.40;7.20;;;4.40;99.90;;;;;;5070845;28;20434;-67
2020/12/15 09:13:57;;;;;;;11.80;7.40;;;4.50;99.90;;;;;;5070324;28;21015;-66
2020/12/15 09:16:29;;;;;;;13.20;8.13;;;4.50;99.90;;;;;;5071142;28;20472;-67
2020/12/15 09:18:57;;;;;;;13.37;7.97;;;4.50;99.90;;;;;;5071107;28;20429;-67
2020/12/15 09:21:24;;;;;;;11.80;7.10;;;4.50;99.90;;;;;;5070365;28;20487;-67
2020/12/15 09:23:51;;;;;;;9.43;6.90;;;4.50;99.90;;;;;;5071067;28;21181;-67
2020/12/15 09:26:19;;;;;;;11.73;8.30;;;4.60;99.90;;;;;;5079367;28;20451;-66
2020/12/15 09:28:46;;;;;;;8.90;7.27;;;4.60;99.90;;;;;;5073116;28;20852;-67
2020/12/15 09:31:13;;;;;;;12.90;7.27;;;4.70;99.90;;;;;;5070670;28;20442;-67
2020/12/15 09:33:40;;;;;;;9.70;6.90;;;4.80;99.90;;;;;;5070938;28;20479;-67
2020/12/15 09:36:08;;;;;;;9.30;6.20;;;4.90;99.90;;;;;;5070843;28;20466;-67
2020/12/15 09:38:35;;;;;;;7.43;6.40;;;4.90;99.90;;;;;;5070601;28;20418;-65
2020/12/15 09:41:01;;;;;;;10.33;6.97;;;4.90;99.90;;;;;;5070673;28;20453;-66
2020/12/15 09:43:28;;;;;;;12.33;7.60;;;5.00;99.90;;;;;;5070372;28;20446;-66
2020/12/15 09:45:55;;;;;;;8.30;6.83;;;5.00;99.90;;;;;;5070948;28;20422;-69
2020/12/15 09:48:21;;;;;;;10.17;6.90;;;5.10;99.90;;;;;;5070702;28;20426;-67
2020/12/15 09:50:49;;;;;;;12.03;7.93;;;5.00;99.90;;;;;;5070870;28;20457;-67
2020/12/15 09:53:17;;;;;;;10.03;7.90;;;4.90;99.90;;;;;;5070644;28;20524;-67
2020/12/15 09:55:44;;;;;;;12.00;7.17;;;4.80;99.90;;;;;;5070676;28;20496;-67
2020/12/15 09:58:11;;;;;;;8.20;6.40;;;4.90;99.90;;;;;;5070146;28;20946;-68
2020/12/15 10:00:37;;;;;;;12.00;8.00;;;4.90;99.90;;;;;;5070540;28;20446;-67
2020/12/15 10:03:04;;;;;;;9.53;6.80;;;4.90;99.90;;;;;;5070158;28;20426;-67
2020/12/15 10:05:30;;;;;;;8.90;7.27;;;4.90;99.90;;;;;;5070276;28;20448;-67
2020/12/15 10:07:57;;;;;;;10.27;7.67;;;4.90;99.90;;;;;;5070094;28;20444;-67
2020/12/15 10:10:25;;;;;;;13.20;9.47;;;5.00;99.90;;;;;;5072988;28;20461;-66
2020/12/15 10:12:51;;;;;;;12.33;8.50;;;5.00;99.90;;;;;;5081178;28;20429;-68
2020/12/15 10:15:18;;;;;;;11.07;7.70;;;5.10;99.90;;;;;;5070069;28;20808;-67
2020/12/15 10:17:45;;;;;;;8.83;5.70;;;5.10;99.90;;;;;;5088855;28;20436;-68
2020/12/15 10:20:11;;;;;;;8.43;5.87;;;5.30;99.90;;;;;;5093124;28;20452;-68
2020/12/15 10:22:38;;;;;;;11.33;8.17;;;5.40;99.90;;;;;;5083293;28;20425;-68
2020/12/15 10:25:05;;;;;;;7.43;5.50;;;5.60;99.90;;;;;;5085440;28;20452;-68
2020/12/15 10:27:32;;;;;;;8.90;5.77;;;5.70;99.90;;;;;;5076130;28;20524;-69
2020/12/15 10:29:59;;;;;;;7.10;5.17;;;5.80;99.90;;;;;;5074122;28;20456;-68
2020/12/15 10:32:26;;;;;;;5.73;5.10;;;6.00;99.90;;;;;;5072747;28;20414;-68
2020/12/15 10:34:53;;;;;;;5.77;4.53;;;6.00;99.90;;;;;;5072445;28;20430;-68
2020/12/15 10:37:22;;;;;;;7.23;4.70;;;6.10;99.90;;;;;;5074054;28;20531;-69
2020/12/15 10:39:49;;;;;;;7.20;6.20;;;6.20;99.90;;;;;;5073535;28;20459;-68
2020/12/15 10:42:16;;;;;;;5.40;4.50;;;6.30;99.90;;;;;;5073825;28;20442;-68
2020/12/15 10:44:44;;;;;;;6.30;5.00;;;6.50;99.90;;;;;;5079063;28;20426;-68
2020/12/15 10:47:11;;;;;;;8.70;5.17;;;6.60;99.90;;;;;;5089883;28;20458;-67
2020/12/15 10:49:38;;;;;;;6.20;4.00;;;6.60;99.90;;;;;;5074068;28;20802;-69
2020/12/15 10:52:07;;;;;;;3.83;3.43;;;6.70;99.90;;;;;;5073767;28;20426;-69
2020/12/15 10:54:34;;;;;;;5.00;4.50;;;6.80;99.90;;;;;;5073673;28;20434;-69
2020/12/15 10:57:03;;;;;;;5.97;3.73;;;6.80;99.90;;;;;;5073604;28;20469;-69
2020/12/15 10:59:29;;;;;;;6.97;5.33;;;6.80;99.90;;;;;;5073042;28;20458;-69
2020/12/15 11:01:57;;;;;;;6.17;5.20;;;6.70;99.90;;;;;;5074080;28;20426;-69
2020/12/15 11:04:23;;;;;;;9.67;6.13;;;6.50;99.90;;;;;;5074695;28;20487;-69
2020/12/15 11:06:50;;;;;;;7.90;5.40;;;6.50;99.90;;;;;;5094109;28;20426;-69
2020/12/15 11:09:17;;;;;;;5.97;4.87;;;6.50;99.90;;;;;;5093399;28;20497;-69
2020/12/15 11:11:47;;;;;;;7.07;5.60;;;6.50;99.90;;;;;;5093410;28;20429;-69
2020/12/15 11:14:17;;;;;;;7.93;4.67;;;6.40;99.90;;;;;;5093970;28;20514;-70
2020/12/15 11:16:45;;;;;;;6.00;4.20;;;6.40;99.90;;;;;;5093919;28;20469;-70
2020/12/15 11:19:12;;;;;;;8.63;5.47;;;6.30;99.90;;;;;;5093622;28;20540;-70
2020/12/15 11:21:39;;;;;;;6.37;5.33;;;6.30;99.90;;;;;;5093436;28;20483;-69
2020/12/15 11:24:06;;;;;;;8.80;5.70;;;6.30;99.90;;;;;;5093160;28;20938;-69
2020/12/15 11:26:32;;;;;;;6.13;5.10;;;6.20;99.90;;;;;;5078484;28;20514;-69
2020/12/15 11:28:59;;;;;;;6.03;4.47;;;6.20;99.90;;;;;;5090935;28;20945;-69
2020/12/15 11:31:26;;;;;;;7.03;5.63;;;6.20;99.90;;;;;;5092313;28;20477;-68
2020/12/15 11:33:53;;;;;;;6.40;4.80;;;6.20;99.90;;;;;;5093551;28;20437;-68
2020/12/15 11:36:21;;;;;;;5.63;4.67;;;6.20;99.90;;;;;;5093448;28;20831;-69
2020/12/15 11:38:48;;;;;;;8.10;5.10;;;6.20;99.90;;;;;;5092505;28;20429;-67
2020/12/15 11:41:14;;;;;;;8.03;5.27;;;6.20;99.90;;;;;;5092756;28;20428;-69
2020/12/15 11:43:41;;;;;;;8.83;5.80;;;6.10;99.90;;;;;;5093065;28;20426;-69
2020/12/15 11:46:08;;;;;;;7.73;5.43;;;6.10;99.90;;;;;;5093180;28;20437;-70
2020/12/15 11:48:37;;;;;;;7.40;4.80;;;6.10;99.90;;;;;;5093126;28;20428;-69
2020/12/15 11:51:04;;;;;;;7.70;5.53;;;6.00;99.90;;;;;;5092665;28;20457;-69
2020/12/15 11:53:32;;;;;;;7.57;5.73;;;6.00;99.90;;;;;;5092487;28;20433;-69
2020/12/15 11:55:58;;;;;;;6.70;3.83;;;6.00;99.90;;;;;;5091604;28;20476;-70
2020/12/15 11:58:25;;;;;;;7.37;4.70;;;6.00;99.90;;;;;;5072427;28;20426;-70
2020/12/15 12:00:52;;;;;;;6.27;4.37;;;6.00;99.90;;;;;;5072707;28;20452;-69
2020/12/15 12:03:18;;;;;;;6.43;4.97;;;6.10;99.90;;;;;;5072522;28;20418;-69
2020/12/15 12:05:45;;;;;;;12.57;6.90;;;6.10;99.90;;;;;;5072223;28;20997;-68
2020/12/15 12:08:12;;;;;;;7.73;5.43;;;6.10;99.90;;;;;;5072188;28;20422;-69
2020/12/15 12:10:39;;;;;;;8.63;6.20;;;6.20;99.90;;;;;;5072153;28;20442;-68
2020/12/15 12:13:09;;;;;;;7.33;5.70;;;6.20;99.90;;;;;;5072241;28;20426;-69
2020/12/15 12:15:35;;;;;;;6.13;4.80;;;6.20;99.90;;;;;;5072197;28;20488;-68
2020/12/15 12:18:02;;;;;;;8.80;4.20;;;6.20;99.90;;;;;;5072082;28;20448;-68
2020/12/15 12:20:34;;;;;;;5.93;4.60;;;6.30;99.90;;;;;;5072641;28;20462;-68
2020/12/15 12:23:01;;;;;;;5.80;4.20;;;6.30;99.90;;;;;;5072569;28;20434;-69
2020/12/15 12:25:27;;;;;;;5.07;3.60;;;6.40;99.90;;;;;;5077547;28;20429;-68
2020/12/15 12:27:55;;;;;;;3.50;3.20;;;6.40;99.90;;;;;;5080163;28;20811;-69
2020/12/15 12:30:22;;;;;;;4.83;3.90;;;6.50;99.90;;;;;;5071997;28;20837;-69
2020/12/15 12:32:50;;;;;;;5.67;4.63;;;6.60;99.90;;;;;;5071522;28;20426;-69
2020/12/15 12:35:17;;;;;;;7.53;5.13;;;6.60;99.90;;;;;;5071784;28;20426;-69
2020/12/15 12:37:43;;;;;;;4.97;3.50;;;6.60;99.90;;;;;;5072133;28;20510;-68
2020/12/15 12:40:11;;;;;;;3.83;3.43;;;6.50;99.90;;;;;;5071759;28;20450;-68
2020/12/15 12:42:38;;;;;;;6.40;3.53;;;6.50;99.90;;;;;;5071151;28;20521;-69
2020/12/15 12:45:06;;;;;;;4.87;3.63;;;6.50;99.90;;;;;;5071945;28;20796;-69
2020/12/15 12:47:33;;;;;;;5.30;3.40;;;6.50;99.90;;;;;;5071657;28;20430;-68
2020/12/15 12:49:59;;;;;;;4.30;3.57;;;6.50;99.90;;;;;;5071609;28;20446;-70
2020/12/15 12:52:26;;;;;;;4.40;3.60;;;6.50;99.90;;;;;;5071415;28;20448;-69
2020/12/15 12:54:53;;;;;;;3.93;3.50;;;6.60;99.90;;;;;;5071945;28;20782;-70
2020/12/15 12:57:20;;;;;;;5.20;4.07;;;6.50;99.90;;;;;;5071278;28;20469;-70
2020/12/15 12:59:47;;;;;;;5.57;4.83;;;6.50;99.90;;;;;;5071574;28;20537;-70